Time;durP1;ratioP1;P1;durP2;ratioP2;P2;SDS_P1;SDS_P2;PMS_P1;PMS_P2;Temp;Humidity;BMP_temperature;BMP_pressure;BME280_temperature;BME280_humidity;BME280_pressure;Samples;Min_cycle;Max_cycle;Signal;HPM_P1;HPM_P2
2021/04/01 00:01:59;;;;;;;;;34.00;30.00;;;;;20.55;42.28;99003.81;5655843;27;5791214;-61
2021/04/01 00:05:08;;;;;;;;;34.20;30.00;;;;;20.56;42.13;98992.59;5654856;27;5780462;-61
2021/04/01 00:08:14;;;;;;;;;31.43;29.43;;;;;20.54;42.11;98983.00;5635058;28;5786984;-61
2021/04/01 00:11:22;;;;;;;;;34.20;30.00;;;;;20.58;42.12;98990.38;5636276;28;6544926;-60
2021/04/01 00:14:34;;;;;;;;;34.29;30.00;;;;;20.59;42.18;98988.44;5655962;27;5787714;-60
2021/04/01 00:17:44;;;;;;;;;33.27;30.00;;;;;20.61;42.11;98973.38;5653310;27;6539688;-61
2021/04/01 00:20:53;;;;;;;;;36.71;31.71;;;;;20.61;41.96;98961.59;5666294;27;5813835;-58
2021/04/01 00:24:01;;;;;;;;;34.50;30.00;;;;;20.60;42.14;98955.31;5636058;27;7265113;-61
2021/04/01 00:27:07;;;;;;;;;30.71;27.71;;;;;20.56;42.09;98956.16;5630928;27;5816855;-61
2021/04/01 00:30:14;;;;;;;;;32.29;28.71;;;;;20.51;42.09;98959.75;5657260;27;6569967;-61
2021/04/01 00:33:22;;;;;;;;;29.00;28.00;;;;;20.45;42.18;98951.84;5666081;27;5791861;-61
2021/04/01 00:36:28;;;;;;;;;31.71;30.00;;;;;20.39;42.60;98942.84;5650177;28;6561622;-61
2021/04/01 00:39:33;;;;;;;;;33.67;30.00;;;;;20.32;42.71;98939.63;5651153;28;4408515;-60
2021/04/01 00:42:36;;;;;;;;;32.00;30.00;;;;;20.22;42.83;98939.66;5646585;27;4626290;-60
2021/04/01 00:45:45;;;;;;;;;35.71;32.43;;;;;20.18;42.70;98942.09;5649434;28;6563669;-61
2021/04/01 00:48:54;;;;;;;;;34.40;31.40;;;;;20.08;42.94;98933.16;5660760;27;6525101;-61
2021/04/01 00:52:00;;;;;;;;;31.00;29.00;;;;;20.06;43.01;98929.88;5676266;27;6557392;-61
2021/04/01 00:55:11;;;;;;;;;31.00;29.00;;;;;19.94;42.80;98916.53;5660042;27;5806519;-61
2021/04/01 00:58:19;;;;;;;;;33.00;30.00;;;;;20.00;43.18;98920.06;5668170;28;5766853;-61
2021/04/01 01:01:36;;;;;;;;;32.00;30.00;;;;;19.91;43.25;98917.09;5667838;28;6522000;-61
2021/04/01 01:04:41;;;;;;;;;35.33;31.33;;;;;19.87;43.28;98919.59;5648015;27;4337715;-60
2021/04/01 01:07:50;;;;;;;;;32.67;30.00;;;;;19.84;43.47;98913.88;5657552;28;5783523;-60
2021/04/01 01:10:56;;;;;;;;;31.29;29.00;;;;;19.80;43.53;98910.84;5640708;28;5780401;-61
2021/04/01 01:14:06;;;;;;;;;32.67;29.67;;;;;19.76;43.51;98914.44;5649968;27;5779355;-60
2021/04/01 01:17:14;;;;;;;;;31.00;28.33;;;;;19.69;43.53;98905.72;5660404;27;5772029;-58
2021/04/01 01:20:26;;;;;;;;;33.71;28.00;;;;;19.61;43.60;98898.91;5670118;27;6581756;-61
2021/04/01 01:23:51;;;;;;;;;34.00;30.00;;;;;19.55;43.94;98896.50;5633577;27;6555433;-60
2021/04/01 01:27:03;;;;;;;;;30.71;29.71;;;;;19.45;44.02;98898.16;5659945;27;6553260;-60
2021/04/01 01:30:14;;;;;;;;;33.90;29.30;;;;;19.40;44.14;98894.59;5658489;28;6536265;-61
2021/04/01 01:33:22;;;;;;;;;32.29;29.29;;;;;19.36;44.28;98888.03;5656823;27;5780418;-61
2021/04/01 01:36:30;;;;;;;;;33.29;29.29;;;;;19.30;44.24;98889.16;5655049;27;6566832;-61
2021/04/01 01:39:37;;;;;;;;;33.33;30.00;;;;;19.14;44.54;98866.53;5658524;28;5798090;-60
2021/04/01 01:42:43;;;;;;;;;32.00;29.71;;;;;19.24;44.25;98880.16;5635757;28;6526191;-61
2021/04/01 01:45:48;;;;;;;;;32.29;29.86;;;;;19.18;44.20;98874.97;5624871;28;6524111;-61
2021/04/01 01:48:57;;;;;;;;;33.67;31.00;;;;;19.09;44.47;98873.91;5665259;27;5783491;-60
2021/04/01 01:52:03;;;;;;;;;30.71;28.29;;;;;19.00;44.70;98855.38;5638577;28;6517291;-61
2021/04/01 01:55:12;;;;;;;;;28.86;27.29;;;;;18.99;44.55;98861.09;5647829;28;6511631;-61
2021/04/01 01:58:21;;;;;;;;;31.67;30.33;;;;;18.93;44.90;98856.72;5664062;27;5767902;-61
2021/04/01 02:01:28;;;;;;;;;34.14;30.14;;;;;18.84;44.85;98850.19;5655579;27;6536622;-60
2021/04/01 02:04:37;;;;;;;;;30.71;29.00;;;;;18.81;44.96;98848.84;5659006;27;6523029;-61
2021/04/01 02:07:42;;;;;;;;;34.29;29.14;;;;;18.77;45.00;98850.47;5630624;27;5811759;-61
2021/04/01 02:10:48;;;;;;;;;31.00;30.00;;;;;18.68;44.93;98841.19;5651676;27;3950305;-61
2021/04/01 02:13:55;;;;;;;;;32.83;30.00;;;;;18.65;44.76;98833.56;5656342;27;5787667;-60
2021/04/01 02:17:05;;;;;;;;;34.71;31.00;;;;;18.60;44.98;98842.59;5659949;27;5804455;-61
2021/04/01 02:20:14;;;;;;;;;36.00;31.71;;;;;18.56;45.07;98835.22;5665937;27;6557422;-60
2021/04/01 02:23:23;;;;;;;;;39.50;33.00;;;;;18.52;45.00;98829.44;5660343;28;7309535;-60
2021/04/01 02:26:28;;;;;;;;;39.75;33.00;;;;;18.47;45.17;98828.66;5620973;27;6564798;-60
2021/04/01 02:29:37;;;;;;;;;31.71;29.71;;;;;18.40;45.22;98831.66;5660069;28;5778286;-61
2021/04/01 02:32:41;;;;;;;;;33.29;30.71;;;;;18.46;45.19;98827.00;5628196;28;6526208;-60
2021/04/01 02:35:49;;;;;;;;;33.29;30.00;;;;;18.46;45.21;98829.75;5648669;28;6517881;-61
2021/04/01 02:38:54;;;;;;;;;32.57;29.00;;;;;18.47;45.12;98818.53;5653930;28;5816900;-60
2021/04/01 02:42:01;;;;;;;;;33.86;30.14;;;;;18.48;45.33;98824.81;5658975;27;5812792;-61
2021/04/01 02:45:09;;;;;;;;;30.67;28.67;;;;;18.47;45.43;98818.53;5643089;27;4453864;-60
2021/04/01 02:48:16;;;;;;;;;28.83;25.33;;;;;18.46;45.58;98816.09;5667810;27;5781428;-60
2021/04/01 02:51:21;;;;;;;;;33.50;28.25;;;;;18.54;45.37;98818.28;5634449;28;7314707;-61
2021/04/01 02:54:29;;;;;;;;;28.71;27.14;;;;;18.50;45.55;98818.00;5663578;28;6531363;-61
2021/04/01 02:57:36;;;;;;;;;26.00;23.29;;;;;18.60;45.33;98809.00;5655463;27;6513706;-60
2021/04/01 03:00:43;;;;;;;;;29.00;25.71;;;;;18.63;45.43;98813.09;5659132;27;6523065;-61
2021/04/01 03:03:52;;;;;;;;;28.00;26.71;;;;;18.66;45.21;98813.38;5668812;27;6528194;-61
2021/04/01 03:06:58;;;;;;;;;25.29;21.86;;;;;18.73;45.03;98811.16;5641460;27;6530348;-60
2021/04/01 03:10:05;;;;;;;;;28.57;25.14;;;;;18.59;44.70;98780.06;5650821;27;6531403;-61
2021/04/01 03:13:10;;;;;;;;;26.67;25.67;;;;;18.71;44.74;98790.69;5651988;27;3921114;-60
2021/04/01 03:16:25;;;;;;;;;27.86;24.86;;;;;18.81;44.58;98809.78;5657134;28;6508483;-60
2021/04/01 03:19:33;;;;;;;;;30.57;28.00;;;;;18.76;44.52;98810.63;5669474;27;6536938;-58
2021/04/01 03:22:42;;;;;;;;;31.71;28.71;;;;;18.71;44.42;98810.63;5665078;27;5821128;-58
2021/04/01 03:25:50;;;;;;;;;29.14;27.71;;;;;18.57;44.65;98793.97;5655436;28;5798150;-59
2021/04/01 03:28:58;;;;;;;;;34.00;30.00;;;;;18.56;44.65;98797.81;5664807;27;5782523;-59
2021/04/01 03:32:08;;;;;;;;;31.91;28.55;;;;;18.49;44.83;98796.44;5658761;27;6574093;-59
2021/04/01 03:35:22;;;;;;;;;33.86;30.00;;;;;18.42;45.05;98801.38;5654058;27;5783570;-58
2021/04/01 03:38:28;;;;;;;;;28.57;27.29;;;;;18.40;45.00;98795.34;5645595;28;6539045;-59
2021/04/01 03:41:37;;;;;;;;;32.00;30.00;;;;;18.34;45.20;98788.25;5668865;27;5793924;-59
2021/04/01 03:44:40;;;;;;;;;29.50;28.50;;;;;18.31;45.19;98786.91;5644949;27;3917944;-58
2021/04/01 03:47:45;;;;;;;;;32.86;29.43;;;;;18.26;45.11;98773.25;5635195;27;6524521;-58
2021/04/01 03:50:54;;;;;;;;;31.00;29.00;;;;;18.22;45.33;98772.19;5667781;27;6554309;-58
2021/04/01 03:54:03;;;;;;;;;28.57;27.71;;;;;18.01;45.34;98744.06;5667004;27;6540769;-58
2021/04/01 03:57:07;;;;;;;;;25.50;24.50;;;;;18.22;45.35;98765.91;5645599;27;4526287;-59
2021/04/01 04:00:19;;;;;;;;;28.71;26.29;;;;;18.22;45.23;98774.09;5672795;28;6513663;-59
2021/04/01 04:03:34;;;;;;;;;24.67;23.67;;;;;18.23;45.42;98764.81;5656577;28;3928310;-59
2021/04/01 04:06:59;;;;;;;;;25.14;22.57;;;;;18.24;45.70;98767.25;5632232;28;6517802;-59
2021/04/01 04:10:14;;;;;;;;;25.00;23.00;;;;;18.26;45.47;98769.72;5673122;27;5736645;-58
2021/04/01 04:13:27;;;;;;;;;26.83;24.83;;;;;18.30;45.26;98757.16;5693042;27;5754346;-58
2021/04/01 04:16:34;;;;;;;;;26.86;25.71;;;;;18.35;45.06;98760.69;5650650;27;5787669;-59
2021/04/01 04:19:42;;;;;;;;;33.20;30.00;;;;;18.32;44.97;98761.25;5662592;27;6538649;-59
2021/04/01 04:22:51;;;;;;;;;33.71;30.71;;;;;18.26;44.87;98753.34;5668367;28;5790188;-59
2021/04/01 04:25:58;;;;;;;;;33.71;30.14;;;;;18.16;44.94;98754.16;5651084;27;5793939;-60
2021/04/01 04:29:07;;;;;;;;;30.29;29.00;;;;;18.15;45.05;98747.88;5668039;28;5810551;-59
2021/04/01 04:32:14;;;;;;;;;31.43;30.00;;;;;18.13;45.13;98752.78;5667145;27;5795075;-59
2021/04/01 04:35:24;;;;;;;;;29.00;27.71;;;;;18.09;45.46;98754.44;5668709;27;6563672;-59
2021/04/01 04:38:32;;;;;;;;;31.29;28.00;;;;;18.13;45.35;98749.25;5668819;28;6547014;-59
2021/04/01 04:41:39;;;;;;;;;33.67;31.00;;;;;17.98;45.22;98731.00;5661443;27;5796022;-59
2021/04/01 04:44:46;;;;;;;;;34.70;31.50;;;;;18.14;45.34;98748.16;5655358;27;6538698;-59
2021/04/01 04:47:55;;;;;;;;;37.29;32.29;;;;;18.15;45.25;98747.06;5665500;27;6555356;-59
2021/04/01 04:51:04;;;;;;;;;35.33;32.00;;;;;18.04;45.40;98742.69;5668479;27;5785641;-59
2021/04/01 04:54:14;;;;;;;;;31.43;29.00;;;;;18.19;45.57;98751.69;5662913;28;6551561;-59
2021/04/01 04:57:25;;;;;;;;;30.86;28.00;;;;;18.29;45.29;98748.13;5664425;27;6551188;-59
2021/04/01 05:07:17;;;;;;;;;32.33;30.00;;;;;18.51;44.95;98753.31;5661954;28;5784577;-59
2021/04/01 05:10:26;;;;;;;;;36.43;31.86;;;;;18.54;44.87;98750.03;5662616;28;6565780;-59
2021/04/01 05:13:34;;;;;;;;;34.00;31.00;;;;;18.55;44.78;98743.50;5653716;28;5776332;-59
2021/04/01 05:16:40;;;;;;;;;33.00;30.00;;;;;18.47;44.80;98714.78;5652052;28;6526203;-59
2021/04/01 05:19:52;;;;;;;;;31.71;29.71;;;;;18.74;44.60;98744.53;5667083;27;5798470;-59
2021/04/01 05:23:07;;;;;;;;;35.71;30.14;;;;;18.75;44.48;98731.69;5668456;28;5794993;-58
2021/04/01 05:29:34;;;;;;;;;32.33;31.00;;;;;18.92;44.24;98732.97;5654521;28;3915894;-59
2021/04/01 05:32:42;;;;;;;;;31.63;29.25;;;;;18.97;44.12;98741.16;5637999;28;7260542;-60
2021/04/01 05:35:48;;;;;;;;;27.43;26.00;;;;;19.07;44.14;98736.75;5648662;27;6532439;-59
2021/04/01 05:38:55;;;;;;;;;31.67;30.00;;;;;19.14;44.11;98737.25;5653359;27;4298210;-59
2021/04/01 05:42:05;;;;;;;;;34.00;31.00;;;;;19.21;43.70;98744.03;5667172;28;5801360;-59
2021/04/01 05:45:18;;;;;;;;;31.82;29.82;;;;;19.22;43.63;98731.19;5639835;27;6559522;-60
2021/04/01 05:48:36;;;;;;;;;33.82;31.00;;;;;19.25;43.54;98733.38;5639611;28;6510547;-60
2021/04/01 05:59:15;;;;;;;;;33.33;30.00;;;;;19.56;43.45;98718.44;5663095;28;5773119;-59
2021/04/01 06:02:34;;;;;;;;;38.09;32.00;;;;;19.68;43.18;98718.91;5639943;28;6565747;-60
2021/04/01 06:05:47;;;;;;;;;35.82;32.00;;;;;19.82;42.69;98716.34;5631521;27;6550116;-60
2021/04/01 06:08:58;;;;;;;;;34.33;30.33;;;;;19.98;42.48;98719.78;5635293;28;5783542;-60
2021/04/01 06:12:06;;;;;;;;;35.29;31.00;;;;;20.20;42.36;98718.19;5652361;28;6533482;-60
2021/04/01 06:15:13;;;;;;;;;30.71;30.00;;;;;20.33;41.86;98717.53;5649268;27;6532467;-60
2021/04/01 06:18:22;;;;;;;;;35.14;30.43;;;;;20.57;41.70;98716.78;5668333;28;6519888;-60
2021/04/01 06:21:28;;;;;;;;;38.00;32.71;;;;;20.71;41.30;98718.53;5651896;27;6569922;-60
2021/04/01 06:24:38;;;;;;;;;34.29;31.86;;;;;20.99;41.11;98721.47;5660966;27;6536030;-59
2021/04/01 06:27:54;;;;;;;;;34.70;31.00;;;;;21.19;40.64;98721.22;5653566;27;6551208;-59
2021/04/01 06:31:00;;;;;;;;;34.86;31.57;;;;;21.40;40.31;98713.56;5656654;28;6526577;-60
2021/04/01 06:34:06;;;;;;;;;34.71;30.71;;;;;21.56;39.64;98715.75;5629667;28;6532448;-60
2021/04/01 06:37:31;;;;;;;;;31.29;29.14;;;;;21.75;39.44;98720.41;5643693;28;5783492;-60
2021/04/01 06:40:43;;;;;;;;;30.86;30.00;;;;;22.03;38.84;98730.44;5663846;28;5777254;-60
2021/04/01 06:44:03;;;;;;;;;31.00;29.14;;;;;22.19;38.39;98720.78;5654806;28;6555383;-60
2021/04/01 06:47:13;;;;;;;;;31.29;29.71;;;;;22.38;38.06;98713.31;5659317;28;5791861;-60
2021/04/01 06:50:24;;;;;;;;;35.29;30.14;;;;;22.70;37.89;98714.34;5664243;27;6528292;-60
2021/04/01 06:53:38;;;;;;;;;31.00;29.00;;;;;22.91;37.42;98718.38;5652723;28;5783635;-60
2021/04/01 07:01:05;;;;;;;;;26.00;24.43;;;;;23.43;36.09;98697.69;5632340;28;6507433;-60
2021/04/01 07:04:15;;;;;;;;;27.71;26.00;;;;;23.68;36.20;98701.81;5645631;27;6514231;-60
2021/04/01 07:07:22;;;;;;;;;25.00;24.00;;;;;23.85;35.77;98687.41;5639605;28;4581082;-60
2021/04/01 07:10:49;;;;;;;;;21.13;20.13;;;;;24.10;35.34;98695.00;5637239;27;6521002;-60
2021/04/01 07:14:02;;;;;;;;;25.57;22.29;;;;;24.28;35.21;98685.75;5657152;27;5780387;-60
2021/04/01 07:17:12;;;;;;;;;22.33;19.33;;;;;24.57;34.74;98680.53;5641035;28;4132516;-60
2021/04/01 07:44:55;;;;;;;;;27.00;24.71;;;;;26.87;31.04;98673.69;5645337;27;6504305;-60
2021/04/01 07:48:03;;;;;;;;;27.14;24.14;;;;;27.26;30.76;98669.69;5656241;28;5759578;-60
2021/04/01 07:51:21;;;;;;;;;22.33;22.00;;;;;27.54;29.85;98665.25;5649649;28;4351751;-60
2021/04/01 07:54:39;;;;;;;;;24.00;21.75;;;;;27.80;29.39;98665.03;5644055;27;6535644;-60
2021/04/01 07:58:18;;;;;;;;;22.00;20.50;;;;;28.20;28.79;98659.75;5647583;28;5776228;-61
2021/04/01 08:01:48;;;;;;;;;19.29;17.71;;;;;28.49;28.43;98656.00;5655296;28;5740810;-61
2021/04/01 08:04:58;;;;;;;;;22.14;19.71;;;;;28.69;27.78;98646.75;5646821;27;5781404;-60
2021/04/01 08:08:06;;;;;;;;;21.14;19.43;;;;;29.02;27.63;98646.66;5635356;28;5762686;-60
2021/04/01 08:11:14;;;;;;;;;18.00;17.00;;;;;29.29;26.88;98648.69;5652617;28;3923264;-60
2021/04/01 08:14:31;;;;;;;;;17.00;17.00;;;;;29.57;26.59;98639.59;5653882;28;6478308;-60
2021/04/01 08:17:47;;;;;;;;;16.00;14.50;;;;;29.79;26.32;98638.25;5650729;27;5729463;-60
2021/04/01 08:20:58;;;;;;;;;19.00;18.00;;;;;29.91;25.87;98641.03;5660139;28;5747066;-59
2021/04/01 08:24:30;;;;;;;;;20.57;16.00;;;;;30.20;25.64;98631.47;5645691;27;5758639;-61
2021/04/01 08:28:10;;;;;;;;;22.00;18.00;;;;;30.49;25.39;98637.44;5646404;28;4496072;-61
2021/04/01 08:31:56;;;;;;;;;18.71;17.00;;;;;30.61;24.36;98622.59;5654963;28;6498111;-59
2021/04/01 08:35:24;;;;;;;;;14.67;14.50;;;;;30.80;24.67;98631.03;5628534;28;5716784;-59
2021/04/01 08:38:48;;;;;;;;;15.00;14.00;;;;;30.83;24.56;98626.72;5631719;28;4441895;-60
2021/04/01 08:42:38;;;;;;;;;17.17;15.83;;;;;30.95;23.74;98618.25;5661800;28;5748096;-61
2021/04/01 08:46:12;;;;;;;;;17.33;16.00;;;;;31.05;24.11;98614.94;5622990;27;5745958;-60
2021/04/01 08:49:37;;;;;;;;;17.20;17.00;;;;;31.28;23.45;98604.69;5656770;28;6498096;-60
2021/04/01 08:53:27;;;;;;;;;18.71;16.71;;;;;31.20;22.95;98599.34;5665359;28;5758610;-60
2021/04/01 08:56:39;;;;;;;;;16.00;16.00;;;;;31.26;23.08;98609.84;5553095;28;6492182;-60
2021/04/01 08:59:58;;;;;;;;;17.14;16.57;;;;;31.30;23.08;98598.78;5642526;28;5758620;-61
2021/04/01 09:03:06;;;;;;;;;16.57;15.14;;;;;31.57;22.98;98605.34;5650995;28;5736654;-61
2021/04/01 09:06:12;;;;;;;;;15.17;14.00;;;;;31.81;22.02;98605.03;5644006;27;5718927;-61
2021/04/01 09:09:24;;;;;;;;;17.00;16.00;;;;;31.89;21.74;98601.19;5653297;28;5740804;-61
2021/04/01 09:12:42;;;;;;;;;16.00;15.00;;;;;31.95;21.70;98585.78;5662602;28;5725161;-61
2021/04/01 09:15:52;;;;;;;;;18.83;16.67;;;;;32.12;21.50;98579.72;5646333;28;5749197;-61
2021/04/01 09:19:03;;;;;;;;;15.67;14.67;;;;;32.30;21.23;98579.25;5659818;28;5710634;-61
2021/04/01 09:22:17;;;;;;;;;16.00;15.00;;;;;32.46;20.74;98577.91;5659929;28;6429319;-61
2021/04/01 09:25:37;;;;;;;;;15.29;14.29;;;;;32.55;19.91;98586.03;5647139;27;5716927;-61
2021/04/01 09:28:44;;;;;;;;;18.83;17.83;;;;;32.55;20.48;98570.09;5661661;28;5739763;-61
2021/04/01 09:31:57;;;;;;;;;18.00;16.00;;;;;32.64;21.46;98551.16;5662810;27;5751216;-62
2021/04/01 09:35:06;;;;;;;;;17.86;16.00;;;;;32.90;20.79;98569.84;5642414;28;6488739;-61
2021/04/01 09:38:11;;;;;;;;;14.67;14.00;;;;;33.12;20.86;98561.78;5645537;28;5725172;-63
2021/04/01 09:41:26;;;;;;;;;19.00;18.57;;;;;33.22;19.88;98553.56;5642783;27;5752314;-63
2021/04/01 09:44:33;;;;;;;;;19.14;17.14;;;;;33.34;19.82;98556.09;5646038;27;6495983;-62
2021/04/01 09:47:46;;;;;;;;;19.57;17.00;;;;;33.69;19.52;98560.53;5655244;27;5743906;-62
2021/04/01 09:50:55;;;;;;;;;17.00;16.00;;;;;33.88;19.11;98538.78;5639209;27;6483527;-63
2021/04/01 09:54:03;;;;;;;;;18.29;17.00;;;;;34.17;18.49;98544.63;5658601;27;6491792;-63
2021/04/01 09:57:12;;;;;;;;;20.57;18.14;;;;;34.61;17.68;98542.59;5658762;27;6505310;-62
2021/04/01 10:00:29;;;;;;;;;16.83;15.83;;;;;34.83;17.68;98545.59;5660407;27;5743912;-62
2021/04/01 10:04:06;;;;;;;;;20.71;16.00;;;;;34.98;17.44;98541.69;5650118;27;6513723;-62
2021/04/01 10:07:15;;;;;;;;;22.67;17.00;;;;;35.00;17.52;98534.47;5644030;27;5755380;-61
2021/04/01 10:10:34;;;;;;;;;21.71;19.00;;;;;35.16;17.37;98540.56;5638666;27;5767391;-61
2021/04/01 10:13:38;;;;;;;;;19.71;19.71;;;;;35.32;17.73;98529.06;5607137;27;6484573;-62
2021/04/01 10:16:51;;;;;;;;;20.00;19.00;;;;;35.53;17.42;98526.31;5664118;27;5751242;-61
2021/04/01 10:19:59;;;;;;;;;23.00;19.00;;;;;35.59;17.66;98524.72;5650058;27;6504368;-60
2021/04/01 10:23:07;;;;;;;;;20.50;20.00;;;;;35.84;17.98;98507.19;5618021;27;5743867;-60
2021/04/01 10:26:15;;;;;;;;;21.00;18.57;;;;;35.98;17.69;98510.00;5650782;28;6500169;-60
2021/04/01 10:29:38;;;;;;;;;19.00;17.00;;;;;35.98;17.66;98465.09;5655158;27;6492864;-60
2021/04/01 10:32:51;;;;;;;;;17.14;15.86;;;;;36.25;16.98;98505.63;5640545;27;6495021;-61
2021/04/01 10:36:06;;;;;;;;;16.17;15.17;;;;;36.38;15.90;98501.22;5660704;27;5739810;-62
2021/04/01 10:39:14;;;;;;;;;15.17;12.83;;;;;36.44;16.50;98494.00;5662867;27;5716867;-60
2021/04/01 10:42:26;;;;;;;;;14.00;13.00;;;;;36.41;15.72;98477.13;5662399;27;5679326;-61
2021/04/01 10:45:36;;;;;;;;;15.00;14.00;;;;;36.15;14.89;98477.56;5662553;28;5665764;-61
2021/04/01 10:48:48;;;;;;;;;18.67;17.00;;;;;35.57;14.86;98470.25;5664319;28;5741854;-62
2021/04/01 10:51:56;;;;;;;;;16.17;15.00;;;;;35.17;15.24;98466.56;5651968;27;5741865;-61
2021/04/01 10:55:01;;;;;;;;;16.33;15.00;;;;;35.23;15.63;98447.34;5652665;27;5741819;-59
2021/04/01 10:58:07;;;;;;;;;17.00;15.00;;;;;35.12;15.35;98444.47;5658774;27;5737648;-60
2021/04/01 11:01:13;;;;;;;;;16.33;13.33;;;;;34.93;15.96;98446.81;5658611;27;5735605;-61
2021/04/01 11:04:23;;;;;;;;;17.00;15.71;;;;;34.72;16.09;98425.91;5652970;27;6464765;-60
2021/04/01 11:07:34;;;;;;;;;17.00;14.00;;;;;34.60;15.96;98445.81;5653077;27;4200248;-61
2021/04/01 11:10:38;;;;;;;;;15.00;14.00;;;;;34.98;16.02;98440.84;5653723;27;4354430;-62
2021/04/01 11:13:46;;;;;;;;;13.83;13.00;;;;;35.07;15.34;98432.84;5650620;27;5698489;-62
2021/04/01 11:16:52;;;;;;;;;13.17;12.67;;;;;35.22;15.32;98437.34;5658784;27;5691801;-61
2021/04/01 11:20:00;;;;;;;;;16.33;15.00;;;;;34.85;15.23;98433.94;5667509;28;5707054;-61
2021/04/01 11:23:09;;;;;;;;;16.71;14.29;;;;;34.57;15.12;98426.19;5646363;27;5735625;-59
2021/04/01 11:26:16;;;;;;;;;14.83;13.00;;;;;34.87;15.56;98432.38;5661859;27;5698110;-61
2021/04/01 11:29:29;;;;;;;;;16.00;14.00;;;;;35.17;15.30;98418.91;5665619;28;5716863;-61
2021/04/01 11:32:35;;;;;;;;;14.17;13.17;;;;;35.22;14.92;98431.72;5653852;27;5683556;-62
2021/04/01 11:35:43;;;;;;;;;17.00;14.00;;;;;35.24;15.62;98420.91;5656168;27;5754913;-61
2021/04/01 11:38:55;;;;;;;;;12.33;11.00;;;;;37.30;14.27;98421.47;5665880;27;5681961;-67
2021/04/01 11:42:19;;;;;;;;;13.00;11.33;;;;;39.68;12.33;98406.53;5656780;27;5698083;-67
2021/04/01 11:45:31;;;;;;;;;12.00;10.00;;;;;40.75;11.87;98419.56;5658564;27;5666893;-68
2021/04/01 11:48:35;;;;;;;;;16.33;13.00;;;;;43.20;10.55;98402.94;5651143;27;4146597;-67
2021/04/01 11:51:41;;;;;;;;;13.00;12.00;;;;;43.81;10.42;98408.28;5648109;27;5694276;-68
2021/04/01 11:54:52;;;;;;;;;14.00;13.00;;;;;42.38;10.64;98381.78;5661446;27;5691849;-67
2021/04/01 11:57:57;;;;;;;;;15.00;14.00;;;;;40.24;12.79;98378.56;5652493;27;4334642;-61
2021/04/01 12:01:04;;;;;;;;;17.17;15.17;;;;;37.84;13.40;98374.09;5657054;27;5730424;-61
2021/04/01 12:04:11;;;;;;;;;17.29;16.00;;;;;36.45;14.31;98377.66;5648275;27;5773501;-61
2021/04/01 12:07:19;;;;;;;;;16.00;14.00;;;;;35.30;15.41;98360.47;5665224;27;5718987;-61
2021/04/01 12:10:29;;;;;;;;;19.25;16.88;;;;;34.83;16.07;98367.16;5668912;28;6518872;-61
2021/04/01 12:13:35;;;;;;;;;16.50;15.50;;;;;34.23;16.30;98356.44;5626992;27;5750184;-60
2021/04/01 12:16:42;;;;;;;;;17.00;15.00;;;;;33.72;16.80;98355.69;5663959;28;5741819;-60
2021/04/01 12:19:49;;;;;;;;;21.71;16.71;;;;;33.43;17.15;98355.41;5669570;27;6507718;-62
2021/04/01 12:23:07;;;;;;;;;17.00;16.71;;;;;33.05;17.53;98347.44;5653798;27;6482398;-62
2021/04/01 12:26:17;;;;;;;;;17.00;15.00;;;;;32.70;17.12;98344.22;5663106;28;6457447;-62
2021/04/01 12:29:22;;;;;;;;;16.67;12.67;;;;;32.51;17.30;98348.78;5651836;27;4120032;-62
2021/04/01 12:32:31;;;;;;;;;15.17;13.33;;;;;32.27;17.05;98340.88;5656809;27;5702762;-61
2021/04/01 12:35:36;;;;;;;;;18.86;15.86;;;;;31.86;17.11;98316.78;5652301;27;5756465;-64
2021/04/01 12:38:45;;;;;;;;;16.67;15.00;;;;;31.81;17.64;98343.00;5657553;27;5733541;-63
2021/04/01 12:41:50;;;;;;;;;16.00;14.00;;;;;31.64;17.55;98329.59;5638371;27;3196187;-62
2021/04/01 12:44:57;;;;;;;;;16.00;14.33;;;;;31.32;17.64;98329.03;5659421;28;5725208;-62
2021/04/01 12:48:25;;;;;;;;;15.86;14.29;;;;;31.23;17.78;98329.25;5700582;22;6443969;-92
2021/04/01 12:51:42;;;;;;;;;14.83;13.00;;;;;30.93;18.18;98270.66;5598848;28;5698087;-91
2021/04/01 13:12:16;;;;;;;;;20.50;17.50;;;;;30.49;17.72;98313.94;5598246;28;5745022;-62
2021/04/01 13:15:24;;;;;;;;;20.00;16.14;;;;;30.34;18.01;98312.81;5613532;28;6475082;-60
2021/04/01 13:18:31;;;;;;;;;19.29;18.00;;;;;30.15;17.97;98284.19;5607786;28;6502209;-60
2021/04/01 13:21:40;;;;;;;;;21.29;19.00;;;;;30.17;18.72;98304.88;5580029;28;5763822;-61
2021/04/01 13:25:06;;;;;;;;;19.83;18.67;;;;;30.02;18.89;98314.91;5586175;28;5745962;-60
2021/04/01 13:28:15;;;;;;;;;21.57;17.29;;;;;29.91;18.60;98304.72;5622671;28;6506399;-63
2021/04/01 13:31:28;;;;;;;;;19.00;16.00;;;;;29.75;18.49;98304.72;5611951;28;6498074;-61
2021/04/01 13:34:37;;;;;;;;;19.29;17.29;;;;;29.66;18.73;98304.91;5609242;28;5759630;-61
2021/04/01 13:37:49;;;;;;;;;18.33;16.00;;;;;29.57;19.11;98297.94;5609630;28;5764823;-62
2021/04/01 13:40:55;;;;;;;;;19.33;16.33;;;;;29.42;18.87;98293.22;5582465;28;5758464;-61
2021/04/01 13:44:01;;;;;;;;;17.83;17.17;;;;;29.23;19.32;98291.13;5586225;28;5764731;-61
2021/04/01 13:47:09;;;;;;;;;18.71;16.71;;;;;29.23;19.09;98299.44;5614449;28;6491862;-61
2021/04/01 13:50:18;;;;;;;;;19.71;17.00;;;;;29.09;18.76;98294.34;5606465;28;6469971;-60
2021/04/01 13:53:33;;;;;;;;;20.86;20.00;;;;;29.03;19.27;98286.66;5607972;28;6485538;-60
2021/04/01 13:56:53;;;;;;;;;20.50;19.50;;;;;28.87;18.90;98285.84;5614279;28;5756450;-60
2021/04/01 14:00:19;;;;;;;;;22.71;19.86;;;;;28.89;18.85;98294.59;5613120;28;6508502;-60
2021/04/01 14:04:01;;;;;;;;;22.14;21.00;;;;;28.81;18.99;98286.09;5587259;28;6506451;-59
2021/04/01 14:10:35;;;;;;;;;25.25;20.63;;;;;28.58;19.57;98276.75;5621690;28;7279274;-61
2021/04/01 14:13:44;;;;;;;;;23.71;20.00;;;;;28.61;19.62;98272.44;5614449;28;5785583;-60
2021/04/01 14:16:54;;;;;;;;;23.33;19.83;;;;;28.49;19.45;98270.56;5616012;28;5792195;-62
2021/04/01 14:20:11;;;;;;;;;24.14;20.71;;;;;28.31;19.67;98241.50;5585588;28;5781772;-61
2021/04/01 14:23:23;;;;;;;;;19.29;18.29;;;;;28.44;19.49;98260.50;5599163;28;5736675;-62
2021/04/01 14:26:35;;;;;;;;;17.00;16.43;;;;;28.53;19.53;98265.09;5608969;28;5765241;-62
2021/04/01 14:29:41;;;;;;;;;16.00;16.00;;;;;28.34;19.12;98241.63;5590748;28;4586124;-62
2021/04/01 14:32:48;;;;;;;;;21.00;17.67;;;;;28.52;18.71;98260.69;5592044;28;5752203;-60
2021/04/01 14:35:55;;;;;;;;;17.50;15.00;;;;;28.58;18.76;98256.50;5595714;28;5715868;-62
2021/04/01 14:39:01;;;;;;;;;16.14;15.57;;;;;28.54;18.47;98259.16;5607395;28;5750382;-61
2021/04/01 14:42:12;;;;;;;;;21.57;19.43;;;;;28.35;17.88;98229.34;5611260;28;6489698;-62
2021/04/01 14:45:19;;;;;;;;;22.14;17.29;;;;;28.36;18.93;98225.41;5612953;28;6511623;-63
2021/04/01 14:48:29;;;;;;;;;24.71;22.14;;;;;28.54;18.58;98239.75;5615670;28;5797363;-63
2021/04/01 14:51:35;;;;;;;;;18.43;17.00;;;;;28.59;18.71;98239.50;5596272;28;5749251;-61
2021/04/01 14:54:41;;;;;;;;;20.00;18.50;;;;;28.60;18.25;98237.53;5605956;28;5731455;-61
2021/04/01 14:57:48;;;;;;;;;22.43;18.71;;;;;28.58;18.85;98242.66;5611560;28;6516796;-61
2021/04/01 15:00:55;;;;;;;;;24.71;21.00;;;;;28.48;18.41;98226.53;5600122;28;6520969;-62
2021/04/01 15:04:02;;;;;;;;;21.00;19.14;;;;;28.46;18.50;98221.31;5602796;28;6491847;-62
2021/04/01 15:07:09;;;;;;;;;19.71;18.71;;;;;28.46;18.30;98229.66;5605960;28;6492174;-60
2021/04/01 15:10:17;;;;;;;;;22.50;20.20;;;;;28.42;18.63;98231.53;5608781;28;3241980;-63
2021/04/01 15:13:22;;;;;;;;;21.38;18.00;;;;;28.21;18.90;98212.31;5584157;28;6482467;-63
2021/04/01 15:16:28;;;;;;;;;20.78;18.22;;;;;28.35;19.24;98231.31;5610829;28;5720950;-63
2021/04/01 15:19:40;;;;;;;;;20.86;17.29;;;;;28.31;18.98;98234.00;5613373;28;6517130;-62
2021/04/01 15:22:48;;;;;;;;;24.29;18.00;;;;;28.29;19.04;98221.66;5612101;28;6504311;-62
2021/04/01 15:25:55;;;;;;;;;21.29;19.00;;;;;28.22;18.77;98225.03;5623525;28;6485559;-63